sensor_id;sensor_type;location;lat;lon;timestamp;temperature;humidity
27314;DHT22;14800;48.174;9.798;2023-12-20T00:00:55;7.00;76.30
27314;DHT22;14800;48.174;9.798;2023-12-20T00:03:20;7.00;76.30
27314;DHT22;14800;48.174;9.798;2023-12-20T00:05:46;7.00;76.10
27314;DHT22;14800;48.174;9.798;2023-12-20T00:08:12;7.00;76.20
27314;DHT22;14800;48.174;9.798;2023-12-20T00:10:38;7.00;76.30
27314;DHT22;14800;48.174;9.798;2023-12-20T00:13:03;7.00;76.30
27314;DHT22;14800;48.174;9.798;2023-12-20T00:15:29;7.00;76.30
27314;DHT22;14800;48.174;9.798;2023-12-20T00:17:54;7.00;76.20
27314;DHT22;14800;48.174;9.798;2023-12-20T00:20:20;7.00;76.30
27314;DHT22;14800;48.174;9.798;2023-12-20T00:22:46;7.00;76.40
27314;DHT22;14800;48.174;9.798;2023-12-20T00:25:11;7.00;76.50
27314;DHT22;14800;48.174;9.798;2023-12-20T00:27:37;7.00;76.30
27314;DHT22;14800;48.174;9.798;2023-12-20T00:30:03;7.10;76.40
27314;DHT22;14800;48.174;9.798;2023-12-20T00:32:28;7.10;76.50
27314;DHT22;14800;48.174;9.798;2023-12-20T00:34:54;7.00;76.50
27314;DHT22;14800;48.174;9.798;2023-12-20T00:37:20;7.00;76.60
27314;DHT22;14800;48.174;9.798;2023-12-20T00:39:45;7.00;76.70
27314;DHT22;14800;48.174;9.798;2023-12-20T00:42:11;7.00;76.80
27314;DHT22;14800;48.174;9.798;2023-12-20T00:44:36;7.00;77.00
27314;DHT22;14800;48.174;9.798;2023-12-20T00:47:02;7.00;77.10
27314;DHT22;14800;48.174;9.798;2023-12-20T00:49:27;7.00;77.30
27314;DHT22;14800;48.174;9.798;2023-12-20T00:51:53;7.00;77.40
27314;DHT22;14800;48.174;9.798;2023-12-20T00:54:18;7.00;77.50
27314;DHT22;14800;48.174;9.798;2023-12-20T00:56:44;6.90;77.70
27314;DHT22;14800;48.174;9.798;2023-12-20T00:59:09;6.90;77.90
27314;DHT22;14800;48.174;9.798;2023-12-20T01:01:36;6.90;78.00
27314;DHT22;14800;48.174;9.798;2023-12-20T01:04:01;6.90;78.20
27314;DHT22;14800;48.174;9.798;2023-12-20T01:06:27;6.90;78.40
27314;DHT22;14800;48.174;9.798;2023-12-20T01:08:52;6.80;78.60
27314;DHT22;14800;48.174;9.798;2023-12-20T01:11:18;6.80;78.80
27314;DHT22;14800;48.174;9.798;2023-12-20T01:13:43;6.80;79.10
27314;DHT22;14800;48.174;9.798;2023-12-20T01:16:10;6.80;79.40
27314;DHT22;14800;48.174;9.798;2023-12-20T01:18:36;6.80;79.60
27314;DHT22;14800;48.174;9.798;2023-12-20T01:21:05;6.70;79.80
27314;DHT22;14800;48.174;9.798;2023-12-20T01:23:32;6.80;80.20
27314;DHT22;14800;48.174;9.798;2023-12-20T01:25:58;6.70;80.30
27314;DHT22;14800;48.174;9.798;2023-12-20T01:28:25;6.70;80.50
27314;DHT22;14800;48.174;9.798;2023-12-20T01:30:51;6.70;80.60
27314;DHT22;14800;48.174;9.798;2023-12-20T01:33:16;6.70;80.80
27314;DHT22;14800;48.174;9.798;2023-12-20T01:35:42;6.70;81.00
27314;DHT22;14800;48.174;9.798;2023-12-20T01:38:07;6.60;81.10
27314;DHT22;14800;48.174;9.798;2023-12-20T01:40:33;6.60;81.30
27314;DHT22;14800;48.174;9.798;2023-12-20T01:43:06;6.70;81.50
27314;DHT22;14800;48.174;9.798;2023-12-20T01:45:32;6.70;81.80
27314;DHT22;14800;48.174;9.798;2023-12-20T01:47:58;6.70;81.90
27314;DHT22;14800;48.174;9.798;2023-12-20T01:50:25;6.70;81.90
27314;DHT22;14800;48.174;9.798;2023-12-20T01:52:52;6.70;82.20
27314;DHT22;14800;48.174;9.798;2023-12-20T01:55:21;6.70;82.20
27314;DHT22;14800;48.174;9.798;2023-12-20T01:57:47;6.70;82.40
27314;DHT22;14800;48.174;9.798;2023-12-20T02:00:13;6.70;82.50
27314;DHT22;14800;48.174;9.798;2023-12-20T02:02:40;6.70;82.60
27314;DHT22;14800;48.174;9.798;2023-12-20T02:05:06;6.70;82.60
27314;DHT22;14800;48.174;9.798;2023-12-20T02:07:32;6.70;82.70
27314;DHT22;14800;48.174;9.798;2023-12-20T02:10:00;6.70;82.90
27314;DHT22;14800;48.174;9.798;2023-12-20T02:12:26;6.70;82.90
27314;DHT22;14800;48.174;9.798;2023-12-20T02:14:51;6.70;82.90
27314;DHT22;14800;48.174;9.798;2023-12-20T02:17:17;6.60;83.00
27314;DHT22;14800;48.174;9.798;2023-12-20T02:19:43;6.70;83.20
27314;DHT22;14800;48.174;9.798;2023-12-20T02:22:13;6.70;83.40
27314;DHT22;14800;48.174;9.798;2023-12-20T02:24:38;6.70;83.60
27314;DHT22;14800;48.174;9.798;2023-12-20T02:27:06;6.70;83.60
27314;DHT22;14800;48.174;9.798;2023-12-20T02:29:33;6.70;83.90
27314;DHT22;14800;48.174;9.798;2023-12-20T02:31:59;6.70;84.00
27314;DHT22;14800;48.174;9.798;2023-12-20T02:34:25;6.70;84.10
27314;DHT22;14800;48.174;9.798;2023-12-20T02:36:50;6.70;84.30
27314;DHT22;14800;48.174;9.798;2023-12-20T02:39:16;6.70;84.30
27314;DHT22;14800;48.174;9.798;2023-12-20T02:41:42;6.70;84.30
27314;DHT22;14800;48.174;9.798;2023-12-20T02:44:07;6.70;84.50
27314;DHT22;14800;48.174;9.798;2023-12-20T02:46:33;6.80;84.50
27314;DHT22;14800;48.174;9.798;2023-12-20T02:48:58;6.80;84.60
27314;DHT22;14800;48.174;9.798;2023-12-20T02:51:24;6.80;84.80
27314;DHT22;14800;48.174;9.798;2023-12-20T02:53:50;6.80;85.00
27314;DHT22;14800;48.174;9.798;2023-12-20T02:56:15;6.80;85.00
27314;DHT22;14800;48.174;9.798;2023-12-20T02:58:41;6.80;85.10
27314;DHT22;14800;48.174;9.798;2023-12-20T03:01:06;6.80;85.20
27314;DHT22;14800;48.174;9.798;2023-12-20T03:03:32;6.80;85.30
27314;DHT22;14800;48.174;9.798;2023-12-20T03:05:58;6.80;85.50
27314;DHT22;14800;48.174;9.798;2023-12-20T03:08:23;6.90;85.50
27314;DHT22;14800;48.174;9.798;2023-12-20T03:10:49;6.90;85.80
27314;DHT22;14800;48.174;9.798;2023-12-20T03:13:14;6.90;85.70
27314;DHT22;14800;48.174;9.798;2023-12-20T03:15:40;6.90;85.80
27314;DHT22;14800;48.174;9.798;2023-12-20T03:18:06;6.90;85.80
27314;DHT22;14800;48.174;9.798;2023-12-20T03:20:31;7.00;85.90
27314;DHT22;14800;48.174;9.798;2023-12-20T03:23:00;7.00;85.90
27314;DHT22;14800;48.174;9.798;2023-12-20T03:25:25;7.00;86.40
27314;DHT22;14800;48.174;9.798;2023-12-20T03:27:51;7.00;85.90
27314;DHT22;14800;48.174;9.798;2023-12-20T03:30:17;7.00;86.00
27314;DHT22;14800;48.174;9.798;2023-12-20T03:32:43;7.10;86.10
27314;DHT22;14800;48.174;9.798;2023-12-20T03:35:09;7.10;86.40
27314;DHT22;14800;48.174;9.798;2023-12-20T03:37:34;7.10;87.30
27314;DHT22;14800;48.174;9.798;2023-12-20T03:40:00;7.10;86.60
27314;DHT22;14800;48.174;9.798;2023-12-20T03:42:25;7.10;86.70
27314;DHT22;14800;48.174;9.798;2023-12-20T03:44:51;7.10;86.80
27314;DHT22;14800;48.174;9.798;2023-12-20T03:47:17;7.20;87.10
27314;DHT22;14800;48.174;9.798;2023-12-20T03:49:42;7.20;87.20
27314;DHT22;14800;48.174;9.798;2023-12-20T03:52:08;7.20;87.40
27314;DHT22;14800;48.174;9.798;2023-12-20T03:54:35;7.20;87.60
27314;DHT22;14800;48.174;9.798;2023-12-20T03:57:01;7.20;87.90
27314;DHT22;14800;48.174;9.798;2023-12-20T03:59:26;7.20;88.10
27314;DHT22;14800;48.174;9.798;2023-12-20T04:01:52;7.20;88.50
27314;DHT22;14800;48.174;9.798;2023-12-20T04:04:18;7.20;88.40
27314;DHT22;14800;48.174;9.798;2023-12-20T04:06:43;7.20;88.50
27314;DHT22;14800;48.174;9.798;2023-12-20T04:09:09;7.20;88.50
27314;DHT22;14800;48.174;9.798;2023-12-20T04:11:36;7.20;89.70
27314;DHT22;14800;48.174;9.798;2023-12-20T04:14:01;7.20;88.70
27314;DHT22;14800;48.174;9.798;2023-12-20T04:16:27;7.30;88.80
27314;DHT22;14800;48.174;9.798;2023-12-20T04:18:52;7.30;88.80
27314;DHT22;14800;48.174;9.798;2023-12-20T04:21:18;7.30;88.80
27314;DHT22;14800;48.174;9.798;2023-12-20T04:23:44;7.30;88.90
27314;DHT22;14800;48.174;9.798;2023-12-20T04:26:09;7.30;88.90
27314;DHT22;14800;48.174;9.798;2023-12-20T04:28:35;7.30;88.90
27314;DHT22;14800;48.174;9.798;2023-12-20T04:31:01;7.30;88.90
27314;DHT22;14800;48.174;9.798;2023-12-20T04:33:26;7.30;89.00
27314;DHT22;14800;48.174;9.798;2023-12-20T04:35:52;7.30;89.00
27314;DHT22;14800;48.174;9.798;2023-12-20T04:38:17;7.30;89.20
27314;DHT22;14800;48.174;9.798;2023-12-20T04:40:43;7.30;89.20
27314;DHT22;14800;48.174;9.798;2023-12-20T04:43:08;7.30;89.30
27314;DHT22;14800;48.174;9.798;2023-12-20T04:45:35;7.30;89.40
27314;DHT22;14800;48.174;9.798;2023-12-20T04:48:01;7.30;89.50
27314;DHT22;14800;48.174;9.798;2023-12-20T04:50:27;7.20;89.40
27314;DHT22;14800;48.174;9.798;2023-12-20T04:52:52;7.20;89.50
27314;DHT22;14800;48.174;9.798;2023-12-20T04:55:18;7.20;89.50
27314;DHT22;14800;48.174;9.798;2023-12-20T04:57:43;7.20;89.50
27314;DHT22;14800;48.174;9.798;2023-12-20T05:00:09;7.20;89.50
27314;DHT22;14800;48.174;9.798;2023-12-20T05:02:36;7.20;89.50
27314;DHT22;14800;48.174;9.798;2023-12-20T05:05:01;7.20;89.50
27314;DHT22;14800;48.174;9.798;2023-12-20T05:07:27;7.20;89.50
27314;DHT22;14800;48.174;9.798;2023-12-20T05:09:53;7.20;89.60
27314;DHT22;14800;48.174;9.798;2023-12-20T05:12:19;7.20;89.60
27314;DHT22;14800;48.174;9.798;2023-12-20T05:14:46;7.20;89.60
27314;DHT22;14800;48.174;9.798;2023-12-20T05:17:11;7.30;89.70
27314;DHT22;14800;48.174;9.798;2023-12-20T05:19:37;7.20;89.70
27314;DHT22;14800;48.174;9.798;2023-12-20T05:22:02;7.20;89.70
27314;DHT22;14800;48.174;9.798;2023-12-20T05:24:28;7.20;89.70
27314;DHT22;14800;48.174;9.798;2023-12-20T05:26:54;7.20;89.80
27314;DHT22;14800;48.174;9.798;2023-12-20T05:29:20;7.20;89.70
27314;DHT22;14800;48.174;9.798;2023-12-20T05:31:45;7.20;90.00
27314;DHT22;14800;48.174;9.798;2023-12-20T05:34:11;7.20;89.80
27314;DHT22;14800;48.174;9.798;2023-12-20T05:36:37;7.20;89.80
27314;DHT22;14800;48.174;9.798;2023-12-20T05:39:02;7.20;89.70
27314;DHT22;14800;48.174;9.798;2023-12-20T05:41:31;7.20;89.80
27314;DHT22;14800;48.174;9.798;2023-12-20T05:43:57;7.10;89.70
27314;DHT22;14800;48.174;9.798;2023-12-20T05:46:24;7.10;89.90
27314;DHT22;14800;48.174;9.798;2023-12-20T05:48:49;7.10;90.00
27314;DHT22;14800;48.174;9.798;2023-12-20T05:51:15;7.10;90.00
27314;DHT22;14800;48.174;9.798;2023-12-20T05:53:41;7.10;90.00
27314;DHT22;14800;48.174;9.798;2023-12-20T05:56:06;7.10;90.00
27314;DHT22;14800;48.174;9.798;2023-12-20T05:58:33;7.10;90.00
27314;DHT22;14800;48.174;9.798;2023-12-20T06:00:59;7.10;90.00
27314;DHT22;14800;48.174;9.798;2023-12-20T06:03:24;7.00;90.30
27314;DHT22;14800;48.174;9.798;2023-12-20T06:05:50;7.00;90.00
27314;DHT22;14800;48.174;9.798;2023-12-20T06:08:15;7.00;90.00
27314;DHT22;14800;48.174;9.798;2023-12-20T06:10:41;7.00;90.00
27314;DHT22;14800;48.174;9.798;2023-12-20T06:13:06;7.00;90.00
27314;DHT22;14800;48.174;9.798;2023-12-20T06:15:33;6.90;90.00
27314;DHT22;14800;48.174;9.798;2023-12-20T06:17:58;6.90;90.10
27314;DHT22;14800;48.174;9.798;2023-12-20T06:20:24;6.90;90.10
27314;DHT22;14800;48.174;9.798;2023-12-20T06:22:50;6.90;90.30
27314;DHT22;14800;48.174;9.798;2023-12-20T06:25:16;6.90;90.10
27314;DHT22;14800;48.174;9.798;2023-12-20T06:27:41;6.90;90.10
27314;DHT22;14800;48.174;9.798;2023-12-20T06:30:07;6.90;90.10
27314;DHT22;14800;48.174;9.798;2023-12-20T06:32:36;6.90;90.20
27314;DHT22;14800;48.174;9.798;2023-12-20T06:35:03;6.90;90.20
27314;DHT22;14800;48.174;9.798;2023-12-20T06:37:30;6.90;90.20
27314;DHT22;14800;48.174;9.798;2023-12-20T06:39:55;6.90;90.20
27314;DHT22;14800;48.174;9.798;2023-12-20T06:42:22;6.90;90.20
27314;DHT22;14800;48.174;9.798;2023-12-20T06:44:48;6.90;90.20
27314;DHT22;14800;48.174;9.798;2023-12-20T06:47:13;6.90;90.20
27314;DHT22;14800;48.174;9.798;2023-12-20T06:49:40;6.90;90.20
27314;DHT22;14800;48.174;9.798;2023-12-20T06:52:05;6.80;90.30
27314;DHT22;14800;48.174;9.798;2023-12-20T06:54:31;6.90;90.30
27314;DHT22;14800;48.174;9.798;2023-12-20T06:56:59;6.90;90.30
27314;DHT22;14800;48.174;9.798;2023-12-20T06:59:25;6.90;90.30
27314;DHT22;14800;48.174;9.798;2023-12-20T07:01:51;6.90;90.30
27314;DHT22;14800;48.174;9.798;2023-12-20T07:04:17;6.90;90.30
27314;DHT22;14800;48.174;9.798;2023-12-20T07:06:47;6.90;90.30
27314;DHT22;14800;48.174;9.798;2023-12-20T07:09:13;6.90;90.30
27314;DHT22;14800;48.174;9.798;2023-12-20T07:11:39;6.90;90.30
27314;DHT22;14800;48.174;9.798;2023-12-20T07:14:05;6.90;90.30
27314;DHT22;14800;48.174;9.798;2023-12-20T07:16:30;6.90;90.30
27314;DHT22;14800;48.174;9.798;2023-12-20T07:18:56;6.80;90.30
27314;DHT22;14800;48.174;9.798;2023-12-20T07:21:22;6.80;90.30
27314;DHT22;14800;48.174;9.798;2023-12-20T07:23:48;6.90;90.40
27314;DHT22;14800;48.174;9.798;2023-12-20T07:26:14;6.80;90.40
27314;DHT22;14800;48.174;9.798;2023-12-20T07:28:40;6.80;90.40
27314;DHT22;14800;48.174;9.798;2023-12-20T07:31:06;6.80;90.40
27314;DHT22;14800;48.174;9.798;2023-12-20T07:33:31;6.80;90.40
27314;DHT22;14800;48.174;9.798;2023-12-20T07:35:57;6.80;90.50
27314;DHT22;14800;48.174;9.798;2023-12-20T07:38:24;6.80;90.50
27314;DHT22;14800;48.174;9.798;2023-12-20T07:40:49;6.80;90.50
27314;DHT22;14800;48.174;9.798;2023-12-20T07:43:15;6.80;90.50
27314;DHT22;14800;48.174;9.798;2023-12-20T07:45:41;6.80;90.50
27314;DHT22;14800;48.174;9.798;2023-12-20T07:48:07;6.80;90.50
27314;DHT22;14800;48.174;9.798;2023-12-20T07:50:33;6.80;90.60
27314;DHT22;14800;48.174;9.798;2023-12-20T07:52:58;6.80;90.60
27314;DHT22;14800;48.174;9.798;2023-12-20T07:55:26;6.80;90.60
27314;DHT22;14800;48.174;9.798;2023-12-20T07:57:52;6.80;90.60
27314;DHT22;14800;48.174;9.798;2023-12-20T08:00:18;6.90;90.60
27314;DHT22;14800;48.174;9.798;2023-12-20T08:02:44;6.90;90.70
27314;DHT22;14800;48.174;9.798;2023-12-20T08:05:10;6.90;90.60
27314;DHT22;14800;48.174;9.798;2023-12-20T08:07:36;6.80;90.60
27314;DHT22;14800;48.174;9.798;2023-12-20T08:10:01;6.90;90.60
27314;DHT22;14800;48.174;9.798;2023-12-20T08:12:27;6.90;90.60
27314;DHT22;14800;48.174;9.798;2023-12-20T08:14:53;6.90;90.60
27314;DHT22;14800;48.174;9.798;2023-12-20T08:17:19;6.90;90.60
27314;DHT22;14800;48.174;9.798;2023-12-20T08:19:45;6.90;90.60
27314;DHT22;14800;48.174;9.798;2023-12-20T08:22:11;6.90;90.60
27314;DHT22;14800;48.174;9.798;2023-12-20T08:24:36;7.00;90.60
27314;DHT22;14800;48.174;9.798;2023-12-20T08:27:02;6.90;90.60
27314;DHT22;14800;48.174;9.798;2023-12-20T08:29:28;7.00;90.70
27314;DHT22;14800;48.174;9.798;2023-12-20T08:31:54;7.00;90.70
27314;DHT22;14800;48.174;9.798;2023-12-20T08:34:20;7.00;90.70
27314;DHT22;14800;48.174;9.798;2023-12-20T08:36:46;7.00;90.70
27314;DHT22;14800;48.174;9.798;2023-12-20T08:39:11;7.00;90.70
27314;DHT22;14800;48.174;9.798;2023-12-20T08:41:37;7.00;91.20
27314;DHT22;14800;48.174;9.798;2023-12-20T08:44:02;7.00;90.80
27314;DHT22;14800;48.174;9.798;2023-12-20T08:46:29;7.10;90.80
27314;DHT22;14800;48.174;9.798;2023-12-20T08:48:54;7.10;90.80
27314;DHT22;14800;48.174;9.798;2023-12-20T08:51:20;7.10;90.70
27314;DHT22;14800;48.174;9.798;2023-12-20T08:53:48;7.10;90.70
27314;DHT22;14800;48.174;9.798;2023-12-20T08:56:14;7.10;90.70
27314;DHT22;14800;48.174;9.798;2023-12-20T08:58:40;7.20;90.70
27314;DHT22;14800;48.174;9.798;2023-12-20T09:01:07;7.10;90.70
27314;DHT22;14800;48.174;9.798;2023-12-20T09:03:33;7.10;90.70
27314;DHT22;14800;48.174;9.798;2023-12-20T09:05:58;7.10;90.70
27314;DHT22;14800;48.174;9.798;2023-12-20T09:08:24;7.20;90.70
27314;DHT22;14800;48.174;9.798;2023-12-20T09:10:49;7.20;90.60
27314;DHT22;14800;48.174;9.798;2023-12-20T09:13:15;7.20;90.60
27314;DHT22;14800;48.174;9.798;2023-12-20T09:15:41;7.20;90.50
27314;DHT22;14800;48.174;9.798;2023-12-20T09:18:06;7.20;90.60
27314;DHT22;14800;48.174;9.798;2023-12-20T09:20:32;7.30;90.60
27314;DHT22;14800;48.174;9.798;2023-12-20T09:22:58;7.30;90.60
27314;DHT22;14800;48.174;9.798;2023-12-20T09:25:24;7.30;90.60
27314;DHT22;14800;48.174;9.798;2023-12-20T09:27:51;7.30;90.50
27314;DHT22;14800;48.174;9.798;2023-12-20T09:30:17;7.30;90.50
27314;DHT22;14800;48.174;9.798;2023-12-20T09:32:43;7.30;90.50
27314;DHT22;14800;48.174;9.798;2023-12-20T09:35:08;7.30;90.40
27314;DHT22;14800;48.174;9.798;2023-12-20T09:37:34;7.30;90.50
27314;DHT22;14800;48.174;9.798;2023-12-20T09:40:00;7.40;90.60
27314;DHT22;14800;48.174;9.798;2023-12-20T09:43:25;7.40;90.60
27314;DHT22;14800;48.174;9.798;2023-12-20T09:45:25;7.50;90.70
27314;DHT22;14800;48.174;9.798;2023-12-20T09:47:54;7.40;90.60
27314;DHT22;14800;48.174;9.798;2023-12-20T09:50:21;7.50;90.60
27314;DHT22;14800;48.174;9.798;2023-12-20T09:52:51;7.50;90.60
27314;DHT22;14800;48.174;9.798;2023-12-20T09:55:18;7.50;90.60
27314;DHT22;14800;48.174;9.798;2023-12-20T09:57:47;7.50;90.50
27314;DHT22;14800;48.174;9.798;2023-12-20T10:00:14;7.50;90.60
27314;DHT22;14800;48.174;9.798;2023-12-20T10:05:26;7.60;90.60
27314;DHT22;14800;48.174;9.798;2023-12-20T10:07:52;7.60;90.60
27314;DHT22;14800;48.174;9.798;2023-12-20T10:10:18;7.70;90.60
27314;DHT22;14800;48.174;9.798;2023-12-20T10:13:02;7.70;90.50
27314;DHT22;14800;48.174;9.798;2023-12-20T10:15:28;7.80;90.50
27314;DHT22;14800;48.174;9.798;2023-12-20T10:17:54;7.80;90.40
27314;DHT22;14800;48.174;9.798;2023-12-20T10:20:20;7.90;90.50
27314;DHT22;14800;48.174;9.798;2023-12-20T10:22:46;7.90;90.50
27314;DHT22;14800;48.174;9.798;2023-12-20T10:25:12;7.90;90.40
27314;DHT22;14800;48.174;9.798;2023-12-20T10:27:38;8.00;90.40
27314;DHT22;14800;48.174;9.798;2023-12-20T10:30:04;8.00;90.30
27314;DHT22;14800;48.174;9.798;2023-12-20T10:32:30;8.00;90.20
27314;DHT22;14800;48.174;9.798;2023-12-20T10:34:56;8.00;90.10
27314;DHT22;14800;48.174;9.798;2023-12-20T10:37:22;8.10;90.10
27314;DHT22;14800;48.174;9.798;2023-12-20T10:39:53;8.10;90.20
27314;DHT22;14800;48.174;9.798;2023-12-20T10:42:22;8.10;90.10
27314;DHT22;14800;48.174;9.798;2023-12-20T10:44:49;8.20;90.20
27314;DHT22;14800;48.174;9.798;2023-12-20T10:47:15;8.20;90.20
27314;DHT22;14800;48.174;9.798;2023-12-20T10:49:41;8.20;90.10
27314;DHT22;14800;48.174;9.798;2023-12-20T10:52:08;8.30;90.20
27314;DHT22;14800;48.174;9.798;2023-12-20T10:54:34;8.40;90.10
27314;DHT22;14800;48.174;9.798;2023-12-20T10:57:00;8.40;90.00
27314;DHT22;14800;48.174;9.798;2023-12-20T10:59:38;8.40;90.10
27314;DHT22;14800;48.174;9.798;2023-12-20T11:02:05;8.40;90.10
27314;DHT22;14800;48.174;9.798;2023-12-20T11:07:29;8.50;88.90
27314;DHT22;14800;48.174;9.798;2023-12-20T11:10:03;8.50;89.00
27314;DHT22;14800;48.174;9.798;2023-12-20T11:12:53;8.40;88.10
27314;DHT22;14800;48.174;9.798;2023-12-20T11:15:21;8.40;88.30
27314;DHT22;14800;48.174;9.798;2023-12-20T11:17:54;8.30;88.20
27314;DHT22;14800;48.174;9.798;2023-12-20T11:20:35;8.20;86.80
27314;DHT22;14800;48.174;9.798;2023-12-20T11:23:02;8.10;86.80
27314;DHT22;14800;48.174;9.798;2023-12-20T11:25:27;7.90;86.70
27314;DHT22;14800;48.174;9.798;2023-12-20T11:28:10;7.80;87.70
27314;DHT22;14800;48.174;9.798;2023-12-20T11:30:42;7.70;87.30
27314;DHT22;14800;48.174;9.798;2023-12-20T11:33:08;7.60;87.60
27314;DHT22;14800;48.174;9.798;2023-12-20T11:35:34;7.50;87.80
27314;DHT22;14800;48.174;9.798;2023-12-20T11:38:02;7.40;87.90
27314;DHT22;14800;48.174;9.798;2023-12-20T11:40:27;7.30;88.30
27314;DHT22;14800;48.174;9.798;2023-12-20T11:42:53;7.40;88.80
27314;DHT22;14800;48.174;9.798;2023-12-20T11:45:21;7.20;88.80
27314;DHT22;14800;48.174;9.798;2023-12-20T11:47:50;7.20;89.20
27314;DHT22;14800;48.174;9.798;2023-12-20T11:50:16;7.20;89.10
27314;DHT22;14800;48.174;9.798;2023-12-20T11:52:42;7.10;88.30
27314;DHT22;14800;48.174;9.798;2023-12-20T11:55:08;7.10;88.30
27314;DHT22;14800;48.174;9.798;2023-12-20T11:57:34;7.20;88.60
27314;DHT22;14800;48.174;9.798;2023-12-20T11:59:59;7.20;88.80
27314;DHT22;14800;48.174;9.798;2023-12-20T12:02:25;7.20;88.80
27314;DHT22;14800;48.174;9.798;2023-12-20T12:04:50;7.30;88.30
27314;DHT22;14800;48.174;9.798;2023-12-20T12:07:16;7.30;87.70
27314;DHT22;14800;48.174;9.798;2023-12-20T12:09:43;7.30;87.80
27314;DHT22;14800;48.174;9.798;2023-12-20T12:12:10;7.30;87.90
27314;DHT22;14800;48.174;9.798;2023-12-20T12:14:37;7.30;87.60
27314;DHT22;14800;48.174;9.798;2023-12-20T12:17:03;7.30;87.50
27314;DHT22;14800;48.174;9.798;2023-12-20T12:19:29;7.30;87.40
27314;DHT22;14800;48.174;9.798;2023-12-20T12:22:12;7.30;87.60
27314;DHT22;14800;48.174;9.798;2023-12-20T12:24:43;7.30;87.10
27314;DHT22;14800;48.174;9.798;2023-12-20T12:27:09;7.30;87.30
27314;DHT22;14800;48.174;9.798;2023-12-20T12:29:36;7.30;87.30
27314;DHT22;14800;48.174;9.798;2023-12-20T12:32:07;7.30;87.50
27314;DHT22;14800;48.174;9.798;2023-12-20T12:34:36;7.30;87.60
27314;DHT22;14800;48.174;9.798;2023-12-20T12:37:05;7.30;87.70
27314;DHT22;14800;48.174;9.798;2023-12-20T12:39:31;7.30;87.70
27314;DHT22;14800;48.174;9.798;2023-12-20T12:41:56;7.30;87.10
27314;DHT22;14800;48.174;9.798;2023-12-20T12:44:25;7.30;87.10
27314;DHT22;14800;48.174;9.798;2023-12-20T12:46:51;7.40;87.00
27314;DHT22;14800;48.174;9.798;2023-12-20T12:49:21;7.40;86.90
27314;DHT22;14800;48.174;9.798;2023-12-20T12:51:47;7.40;87.50
27314;DHT22;14800;48.174;9.798;2023-12-20T12:54:13;7.40;86.90
27314;DHT22;14800;48.174;9.798;2023-12-20T12:56:41;7.40;87.00
27314;DHT22;14800;48.174;9.798;2023-12-20T12:59:08;7.40;87.00
27314;DHT22;14800;48.174;9.798;2023-12-20T13:01:33;7.50;86.60
27314;DHT22;14800;48.174;9.798;2023-12-20T13:03:59;7.50;86.80
27314;DHT22;14800;48.174;9.798;2023-12-20T13:06:26;7.50;86.70
27314;DHT22;14800;48.174;9.798;2023-12-20T13:08:52;7.60;86.40
27314;DHT22;14800;48.174;9.798;2023-12-20T13:11:18;7.70;85.50
27314;DHT22;14800;48.174;9.798;2023-12-20T13:13:43;7.80;85.60
27314;DHT22;14800;48.174;9.798;2023-12-20T13:16:09;7.80;85.20
27314;DHT22;14800;48.174;9.798;2023-12-20T13:18:34;7.90;85.00
27314;DHT22;14800;48.174;9.798;2023-12-20T13:21:00;7.90;83.80
27314;DHT22;14800;48.174;9.798;2023-12-20T13:23:25;7.90;82.00
27314;DHT22;14800;48.174;9.798;2023-12-20T13:25:51;7.90;81.00
27314;DHT22;14800;48.174;9.798;2023-12-20T13:28:17;8.10;81.20
27314;DHT22;14800;48.174;9.798;2023-12-20T13:30:42;7.90;80.10
27314;DHT22;14800;48.174;9.798;2023-12-20T13:33:08;7.80;80.00
27314;DHT22;14800;48.174;9.798;2023-12-20T13:35:34;7.80;79.60
27314;DHT22;14800;48.174;9.798;2023-12-20T13:38:00;7.70;79.40
27314;DHT22;14800;48.174;9.798;2023-12-20T13:40:26;7.60;79.40
27314;DHT22;14800;48.174;9.798;2023-12-20T13:42:52;7.60;79.50
27314;DHT22;14800;48.174;9.798;2023-12-20T13:45:17;7.50;79.30
27314;DHT22;14800;48.174;9.798;2023-12-20T13:47:43;7.40;79.40
27314;DHT22;14800;48.174;9.798;2023-12-20T13:50:09;7.40;79.40
27314;DHT22;14800;48.174;9.798;2023-12-20T13:52:35;7.30;80.80
27314;DHT22;14800;48.174;9.798;2023-12-20T13:55:01;7.30;80.30
27314;DHT22;14800;48.174;9.798;2023-12-20T13:57:27;7.30;80.30
27314;DHT22;14800;48.174;9.798;2023-12-20T13:59:54;7.20;80.50
27314;DHT22;14800;48.174;9.798;2023-12-20T14:02:19;7.20;80.10
27314;DHT22;14800;48.174;9.798;2023-12-20T14:04:45;7.20;80.00
27314;DHT22;14800;48.174;9.798;2023-12-20T14:07:11;7.20;80.50
27314;DHT22;14800;48.174;9.798;2023-12-20T14:09:36;7.20;79.40
27314;DHT22;14800;48.174;9.798;2023-12-20T14:12:02;7.10;79.10
27314;DHT22;14800;48.174;9.798;2023-12-20T14:14:28;7.10;79.20
27314;DHT22;14800;48.174;9.798;2023-12-20T14:16:53;7.10;78.90
27314;DHT22;14800;48.174;9.798;2023-12-20T14:19:19;7.10;78.20
27314;DHT22;14800;48.174;9.798;2023-12-20T14:21:44;7.10;77.80
27314;DHT22;14800;48.174;9.798;2023-12-20T14:24:14;7.10;78.40
27314;DHT22;14800;48.174;9.798;2023-12-20T14:26:40;7.10;77.30
27314;DHT22;14800;48.174;9.798;2023-12-20T14:29:06;7.10;76.30
27314;DHT22;14800;48.174;9.798;2023-12-20T14:31:33;7.00;76.30
27314;DHT22;14800;48.174;9.798;2023-12-20T14:33:58;7.00;76.30
27314;DHT22;14800;48.174;9.798;2023-12-20T14:36:25;7.00;76.30
27314;DHT22;14800;48.174;9.798;2023-12-20T14:38:50;6.90;76.10
27314;DHT22;14800;48.174;9.798;2023-12-20T14:41:17;6.90;75.70
27314;DHT22;14800;48.174;9.798;2023-12-20T14:43:45;6.80;75.70
27314;DHT22;14800;48.174;9.798;2023-12-20T14:46:12;6.90;76.00
27314;DHT22;14800;48.174;9.798;2023-12-20T14:48:37;6.80;75.40
27314;DHT22;14800;48.174;9.798;2023-12-20T14:51:03;6.90;75.60
27314;DHT22;14800;48.174;9.798;2023-12-20T14:53:29;6.80;75.30
27314;DHT22;14800;48.174;9.798;2023-12-20T14:55:54;6.80;75.80
27314;DHT22;14800;48.174;9.798;2023-12-20T14:58:20;6.80;76.00
27314;DHT22;14800;48.174;9.798;2023-12-20T15:00:45;6.90;76.10
27314;DHT22;14800;48.174;9.798;2023-12-20T15:03:11;6.80;75.90
27314;DHT22;14800;48.174;9.798;2023-12-20T15:05:37;6.90;76.60
27314;DHT22;14800;48.174;9.798;2023-12-20T15:08:03;6.80;76.70
27314;DHT22;14800;48.174;9.798;2023-12-20T15:10:28;6.80;75.80
27314;DHT22;14800;48.174;9.798;2023-12-20T15:12:55;6.90;76.00
27314;DHT22;14800;48.174;9.798;2023-12-20T15:15:21;6.80;76.00
27314;DHT22;14800;48.174;9.798;2023-12-20T15:17:47;6.80;75.90
27314;DHT22;14800;48.174;9.798;2023-12-20T15:20:13;6.80;76.20
27314;DHT22;14800;48.174;9.798;2023-12-20T15:22:39;6.80;76.60
27314;DHT22;14800;48.174;9.798;2023-12-20T15:25:06;6.80;76.70
27314;DHT22;14800;48.174;9.798;2023-12-20T15:27:34;6.80;76.80
27314;DHT22;14800;48.174;9.798;2023-12-20T15:30:03;6.80;76.70
27314;DHT22;14800;48.174;9.798;2023-12-20T15:32:28;6.80;76.80
27314;DHT22;14800;48.174;9.798;2023-12-20T15:34:54;6.80;76.60
27314;DHT22;14800;48.174;9.798;2023-12-20T15:37:20;6.90;76.80
27314;DHT22;14800;48.174;9.798;2023-12-20T15:39:45;6.80;76.60
27314;DHT22;14800;48.174;9.798;2023-12-20T15:42:11;6.80;76.70
27314;DHT22;14800;48.174;9.798;2023-12-20T15:44:36;6.80;76.80